createdAt,value
2022-08-31T00:01:52.268Z,4.70
2022-08-31T00:04:19.619Z,5.38
2022-08-31T00:06:46.467Z,5.50
2022-08-31T00:09:20.623Z,5.40
2022-08-31T00:11:47.514Z,4.82
2022-08-31T00:14:14.537Z,4.90
2022-08-31T00:16:42.441Z,5.22
2022-08-31T00:19:09.450Z,4.63
2022-08-31T00:21:36.302Z,5.57
2022-08-31T00:24:03.423Z,4.65
2022-08-31T00:26:30.362Z,5.13
2022-08-31T00:28:57.188Z,5.63
2022-08-31T00:31:24.140Z,5.32
2022-08-31T00:33:52.706Z,5.70
2022-08-31T00:36:24.307Z,5.20
2022-08-31T00:38:51.990Z,4.70
2022-08-31T00:41:20.957Z,5.53
2022-08-31T00:43:50.206Z,5.47
2022-08-31T00:46:25.403Z,5.45
2022-08-31T00:49:27.260Z,5.25
2022-08-31T00:52:10.023Z,5.38
2022-08-31T00:54:48.386Z,5.35
2022-08-31T00:57:15.293Z,5.25
2022-08-31T00:59:43.045Z,4.78
2022-08-31T01:02:10.208Z,4.65
2022-08-31T01:04:37.131Z,4.93
2022-08-31T01:07:04.494Z,4.60
2022-08-31T01:09:33.235Z,4.47
2022-08-31T01:12:00.121Z,5.00
2022-08-31T01:14:26.957Z,4.07
2022-08-31T01:16:54.496Z,4.53
2022-08-31T01:20:00.222Z,4.85
2022-08-31T01:22:30.754Z,4.75
2022-08-31T01:24:58.631Z,4.35
2022-08-31T01:27:27.228Z,4.43
2022-08-31T01:29:54.154Z,5.18
2022-08-31T01:32:21.014Z,4.18
2022-08-31T01:34:47.809Z,4.57
2022-08-31T01:37:14.705Z,4.00
2022-08-31T01:39:43.460Z,3.75
2022-08-31T01:42:10.266Z,4.15
2022-08-31T01:44:37.150Z,4.63
2022-08-31T01:47:04.156Z,4.00
2022-08-31T01:49:31.131Z,4.20
2022-08-31T01:51:59.014Z,4.53
2022-08-31T01:54:27.770Z,4.05
2022-08-31T01:56:55.693Z,4.15
2022-08-31T01:59:22.729Z,3.85
2022-08-31T02:01:51.947Z,3.72
2022-08-31T02:04:22.858Z,3.72
2022-08-31T02:06:52.480Z,4.10
2022-08-31T02:09:19.879Z,3.60
2022-08-31T02:11:47.004Z,4.45
2022-08-31T02:14:13.961Z,4.03
2022-08-31T02:16:40.921Z,4.28
2022-08-31T02:19:07.994Z,3.33
2022-08-31T02:21:37.902Z,4.18
2022-08-31T02:24:05.055Z,3.70
2022-08-31T02:26:31.953Z,4.13
2022-08-31T02:28:58.927Z,3.88
2022-08-31T02:31:25.822Z,3.42
2022-08-31T02:33:52.674Z,3.58
2022-08-31T02:36:19.491Z,3.88
2022-08-31T02:38:46.735Z,3.50
2022-08-31T02:41:13.595Z,3.45
2022-08-31T02:43:40.442Z,3.17
2022-08-31T02:46:07.371Z,3.25
2022-08-31T02:48:35.086Z,3.47
2022-08-31T02:51:07.911Z,3.45
2022-08-31T02:53:35.006Z,3.30
2022-08-31T02:56:02.022Z,3.70
2022-08-31T02:58:29.058Z,3.00
2022-08-31T03:00:56.943Z,3.58
2022-08-31T03:03:23.903Z,3.70
2022-08-31T03:05:50.946Z,3.42
2022-08-31T03:08:18.326Z,3.33
2022-08-31T03:10:45.202Z,3.60
2022-08-31T03:13:12.066Z,3.00
2022-08-31T03:15:38.906Z,3.00
2022-08-31T03:18:07.168Z,3.08
2022-08-31T03:20:34.629Z,3.00
2022-08-31T03:23:01.734Z,3.05
2022-08-31T03:25:30.745Z,4.05
2022-08-31T03:27:57.634Z,3.22
2022-08-31T03:30:25.567Z,3.22
2022-08-31T03:32:55.095Z,3.15
2022-08-31T03:35:29.335Z,3.20
2022-08-31T03:37:56.470Z,3.08
2022-08-31T03:40:24.432Z,3.53
2022-08-31T03:42:51.346Z,3.55
2022-08-31T03:45:18.317Z,2.97
2022-08-31T03:47:45.735Z,3.17
2022-08-31T03:50:12.782Z,3.33
2022-08-31T03:52:39.762Z,3.15
2022-08-31T03:55:08.757Z,2.75
2022-08-31T03:57:35.627Z,2.85
2022-08-31T04:00:03.319Z,2.90
2022-08-31T04:02:34.120Z,3.22
2022-08-31T04:05:03.870Z,3.42
2022-08-31T04:07:30.665Z,3.65
2022-08-31T04:10:10.759Z,3.58
2022-08-31T04:12:37.605Z,3.90
2022-08-31T04:15:06.078Z,3.33
2022-08-31T04:17:34.995Z,3.30
2022-08-31T04:20:01.921Z,3.20
2022-08-31T04:22:28.783Z,3.10
2022-08-31T04:24:55.650Z,3.15
2022-08-31T04:27:22.525Z,3.15
2022-08-31T04:29:49.357Z,3.67
2022-08-31T04:32:16.179Z,3.10
2022-08-31T04:34:43.054Z,3.35
2022-08-31T04:37:10.376Z,3.30
2022-08-31T04:39:50.496Z,3.42
2022-08-31T04:42:19.097Z,3.42
2022-08-31T04:44:45.974Z,3.40
2022-08-31T04:47:12.789Z,3.53
2022-08-31T04:49:39.824Z,3.60
2022-08-31T04:52:06.836Z,3.03
2022-08-31T04:54:33.725Z,3.92
2022-08-31T04:57:00.614Z,3.10
2022-08-31T04:59:27.600Z,3.00
2022-08-31T05:01:55.827Z,3.90
2022-08-31T05:04:26.025Z,3.33
2022-08-31T05:06:52.899Z,3.30
2022-08-31T05:09:22.626Z,3.30
2022-08-31T05:11:51.032Z,3.70
2022-08-31T05:14:18.096Z,3.80
2022-08-31T05:16:45.561Z,3.33
2022-08-31T05:19:12.587Z,3.85
2022-08-31T05:21:40.557Z,3.67
2022-08-31T05:24:09.756Z,3.08
2022-08-31T05:26:42.142Z,3.50
2022-08-31T05:29:09.421Z,3.70
2022-08-31T05:31:37.431Z,3.40
2022-08-31T05:34:04.479Z,3.05
2022-08-31T05:36:31.498Z,3.50
2022-08-31T05:39:01.342Z,3.67
2022-08-31T05:41:28.975Z,3.63
2022-08-31T05:43:55.850Z,4.05
2022-08-31T05:46:22.786Z,3.58
2022-08-31T05:48:50.179Z,2.95
2022-08-31T05:51:17.649Z,4.20
2022-08-31T05:53:44.851Z,3.20
2022-08-31T05:56:15.918Z,3.50
2022-08-31T05:58:47.404Z,3.00
2022-08-31T06:01:15.180Z,3.40
2022-08-31T06:03:42.374Z,3.67
2022-08-31T06:06:09.871Z,3.25
2022-08-31T06:08:37.341Z,3.17
2022-08-31T06:11:04.382Z,3.10
2022-08-31T06:13:31.285Z,3.35
2022-08-31T06:15:59.453Z,3.40
2022-08-31T06:18:26.413Z,2.67
2022-08-31T06:21:09.760Z,2.55
2022-08-31T06:23:37.454Z,2.97
2022-08-31T06:26:06.294Z,2.58
2022-08-31T06:28:33.734Z,2.60
2022-08-31T06:31:01.600Z,2.72
2022-08-31T06:33:29.368Z,2.55
2022-08-31T06:35:56.630Z,2.78
2022-08-31T06:38:25.212Z,2.75
2022-08-31T06:40:52.095Z,2.58
2022-08-31T06:43:19.462Z,2.50
2022-08-31T06:45:46.475Z,2.30
2022-08-31T06:48:13.365Z,2.45
2022-08-31T06:50:41.512Z,2.40
2022-08-31T06:53:09.739Z,2.45
2022-08-31T06:55:36.767Z,2.85
2022-08-31T06:58:03.609Z,2.42
2022-08-31T07:00:33.784Z,2.33
2022-08-31T07:03:21.595Z,2.25
2022-08-31T07:05:48.790Z,2.95
2022-08-31T07:08:15.704Z,2.40
2022-08-31T07:10:42.634Z,2.15
2022-08-31T07:13:09.525Z,2.90
2022-08-31T07:15:36.582Z,2.42
2022-08-31T07:18:06.109Z,2.00
2022-08-31T07:20:36.654Z,2.40
2022-08-31T07:23:03.505Z,2.10
2022-08-31T07:25:30.483Z,2.60
2022-08-31T07:27:59.337Z,2.35
2022-08-31T07:30:28.978Z,2.20
2022-08-31T07:33:00.831Z,2.20
2022-08-31T07:35:30.026Z,2.33
2022-08-31T07:38:16.875Z,2.55
2022-08-31T07:41:22.035Z,2.63
2022-08-31T07:43:48.898Z,2.55
2022-08-31T07:46:16.511Z,2.35
2022-08-31T07:48:43.363Z,2.13
2022-08-31T07:51:14.590Z,2.38
2022-08-31T07:53:47.712Z,2.20
2022-08-31T07:56:16.575Z,2.20
2022-08-31T07:58:43.690Z,2.28
2022-08-31T08:01:10.554Z,2.30
2022-08-31T08:03:44.052Z,2.70
2022-08-31T08:06:17.986Z,2.30
2022-08-31T08:08:50.474Z,2.42
2022-08-31T08:11:28.585Z,2.15
2022-08-31T08:13:55.878Z,2.25
2022-08-31T08:16:23.462Z,2.85
2022-08-31T08:18:50.351Z,2.15
2022-08-31T08:21:17.214Z,2.92
2022-08-31T08:23:46.977Z,2.05
2022-08-31T08:26:21.161Z,2.13
2022-08-31T08:28:48.456Z,1.83
2022-08-31T08:31:18.587Z,2.50
2022-08-31T08:33:45.905Z,2.65
2022-08-31T08:36:13.005Z,2.50
2022-08-31T08:38:43.612Z,2.35
2022-08-31T08:41:19.325Z,2.30
2022-08-31T08:43:57.507Z,2.42
2022-08-31T08:46:52.397Z,2.25
2022-08-31T08:49:19.267Z,1.83
2022-08-31T08:51:47.723Z,2.10
2022-08-31T08:54:19.133Z,2.10
2022-08-31T08:56:49.356Z,1.83
2022-08-31T08:59:19.589Z,1.50
2022-08-31T09:01:48.018Z,1.58
2022-08-31T09:04:33.222Z,2.00
2022-08-31T09:07:23.111Z,1.55
2022-08-31T09:10:11.945Z,1.55
2022-08-31T09:12:43.066Z,1.70
2022-08-31T09:15:36.236Z,1.80
2022-08-31T09:18:32.999Z,2.60
2022-08-31T09:21:20.822Z,1.77
2022-08-31T09:24:08.912Z,1.90
2022-08-31T09:27:20.983Z,1.45
2022-08-31T09:29:55.777Z,1.60
2022-08-31T09:32:26.212Z,2.05
2022-08-31T09:35:00.355Z,1.95
2022-08-31T09:37:35.258Z,1.85
2022-08-31T09:40:24.356Z,1.60
2022-08-31T09:43:27.578Z,1.98
2022-08-31T09:46:04.083Z,1.83
2022-08-31T09:48:56.286Z,1.83
2022-08-31T09:51:28.358Z,1.60
2022-08-31T09:54:25.202Z,1.67
2022-08-31T09:56:58.678Z,1.77
2022-08-31T09:59:44.189Z,1.60
2022-08-31T10:02:26.629Z,1.70
2022-08-31T10:04:55.546Z,1.65
2022-08-31T10:07:58.436Z,1.50
2022-08-31T10:10:33.165Z,1.67
2022-08-31T10:13:07.183Z,1.52
2022-08-31T10:15:39.583Z,2.10
2022-08-31T10:18:14.575Z,1.75
2022-08-31T10:20:48.322Z,1.45
2022-08-31T10:23:29.242Z,1.67
2022-08-31T10:26:02.341Z,1.77
2022-08-31T10:28:52.412Z,1.42
2022-08-31T10:31:23.996Z,1.50
2022-08-31T10:34:37.266Z,1.40
2022-08-31T10:37:16.162Z,1.67
2022-08-31T10:39:58.271Z,1.33
2022-08-31T10:42:26.523Z,1.63
2022-08-31T10:44:59.319Z,1.70
2022-08-31T10:47:33.877Z,1.50
2022-08-31T10:50:03.234Z,1.38
2022-08-31T10:52:33.322Z,1.58
2022-08-31T10:55:07.554Z,1.40
2022-08-31T10:58:00.602Z,1.55
2022-08-31T11:00:48.984Z,1.25
2022-08-31T11:03:27.997Z,1.40
2022-08-31T11:06:18.253Z,1.70
2022-08-31T11:08:49.085Z,1.73
2022-08-31T11:11:26.783Z,2.03
2022-08-31T11:14:14.815Z,1.60
2022-08-31T11:16:52.202Z,1.33
2022-08-31T11:19:56.314Z,1.50
2022-08-31T11:23:06.268Z,1.50
2022-08-31T11:25:54.471Z,1.92
2022-08-31T11:29:00.288Z,1.40
2022-08-31T11:31:28.481Z,1.60
2022-08-31T11:34:16.075Z,1.55
2022-08-31T11:37:05.026Z,1.50
2022-08-31T11:39:35.980Z,1.40
2022-08-31T11:42:18.791Z,1.73
2022-08-31T11:44:54.214Z,2.05
2022-08-31T11:47:30.589Z,2.05
2022-08-31T11:50:20.873Z,1.92
2022-08-31T11:52:53.655Z,2.00
2022-08-31T11:55:25.731Z,1.60
2022-08-31T11:58:07.760Z,1.67
2022-08-31T12:00:56.016Z,1.95
2022-08-31T12:03:43.430Z,2.60
2022-08-31T12:06:28.277Z,1.83
2022-08-31T12:09:38.841Z,2.10
2022-08-31T12:12:27.925Z,1.90
2022-08-31T12:15:28.540Z,1.90
2022-08-31T12:18:10.833Z,1.98
2022-08-31T12:21:37.009Z,1.88
2022-08-31T12:24:19.147Z,1.75
2022-08-31T12:27:04.819Z,1.95
2022-08-31T12:29:33.323Z,2.08
2022-08-31T12:32:11.112Z,2.00
2022-08-31T12:34:59.503Z,2.38
2022-08-31T12:37:28.690Z,1.92
2022-08-31T12:40:11.680Z,2.05
2022-08-31T12:43:08.477Z,1.90
2022-08-31T12:46:01.852Z,2.30
2022-08-31T12:48:47.478Z,2.55
2022-08-31T12:51:32.795Z,2.47
2022-08-31T12:54:13.720Z,2.33
2022-08-31T12:56:58.638Z,2.53
2022-08-31T13:00:00.555Z,2.10
2022-08-31T13:02:29.248Z,2.50
2022-08-31T13:04:57.478Z,2.22
2022-08-31T13:07:32.683Z,2.38
2022-08-31T13:10:12.883Z,2.70
2022-08-31T13:12:39.775Z,2.45
2022-08-31T13:15:10.820Z,2.40
2022-08-31T13:17:41.285Z,2.03
2022-08-31T13:20:08.436Z,2.53
2022-08-31T13:22:41.344Z,2.38
2022-08-31T13:25:36.538Z,2.72
2022-08-31T13:28:15.072Z,2.60
2022-08-31T13:30:50.363Z,2.00
2022-08-31T13:33:31.847Z,2.65
2022-08-31T13:36:05.826Z,2.10
2022-08-31T13:38:44.936Z,2.35
2022-08-31T13:41:23.416Z,2.28
2022-08-31T13:43:58.672Z,2.38
2022-08-31T13:46:41.612Z,2.90
2022-08-31T13:49:20.787Z,1.75
2022-08-31T13:51:47.631Z,2.92
2022-08-31T13:54:24.958Z,2.20
2022-08-31T13:56:54.828Z,2.28
2022-08-31T13:59:24.624Z,2.25
2022-08-31T14:02:14.811Z,2.47
2022-08-31T14:04:46.467Z,2.55
2022-08-31T14:07:23.523Z,2.90
2022-08-31T14:09:57.741Z,2.65
2022-08-31T14:12:37.607Z,2.72
2022-08-31T14:15:11.098Z,3.22
2022-08-31T14:17:42.253Z,2.63
2022-08-31T14:20:33.734Z,2.78
2022-08-31T14:23:27.627Z,2.63
2022-08-31T14:25:59.814Z,2.25
2022-08-31T14:28:38.782Z,2.67
2022-08-31T14:31:12.478Z,3.08
2022-08-31T14:33:40.401Z,2.78
2022-08-31T14:36:14.569Z,2.83
2022-08-31T14:38:42.850Z,2.70
2022-08-31T14:41:15.825Z,2.10
2022-08-31T14:43:43.365Z,2.45
2022-08-31T14:46:10.570Z,2.50
2022-08-31T14:48:37.622Z,2.40
2022-08-31T14:51:06.599Z,2.45
2022-08-31T14:53:37.175Z,2.38
2022-08-31T14:56:06.554Z,2.80
2022-08-31T14:58:38.134Z,2.80
2022-08-31T15:01:06.264Z,2.85
2022-08-31T15:03:34.613Z,3.88
2022-08-31T15:06:03.826Z,3.28
2022-08-31T15:08:38.244Z,3.75
2022-08-31T15:11:06.255Z,2.78
2022-08-31T15:13:34.087Z,2.45
2022-08-31T15:16:04.105Z,2.63
2022-08-31T15:18:35.639Z,2.13
2022-08-31T15:21:04.323Z,2.75
2022-08-31T15:23:32.130Z,3.03
2022-08-31T15:26:06.660Z,2.65
2022-08-31T15:28:37.538Z,2.65
2022-08-31T15:31:11.444Z,2.72
2022-08-31T15:33:39.989Z,2.45
2022-08-31T15:36:09.209Z,3.17
2022-08-31T15:38:37.438Z,3.55
2022-08-31T15:41:04.964Z,2.97
2022-08-31T15:43:32.535Z,2.60
2022-08-31T15:45:59.595Z,2.40
2022-08-31T15:48:41.905Z,2.80
2022-08-31T15:51:27.992Z,3.47
2022-08-31T15:54:21.182Z,2.88
2022-08-31T15:56:49.207Z,3.08
2022-08-31T15:59:16.038Z,2.10
2022-08-31T16:01:42.917Z,3.03
2022-08-31T16:04:16.282Z,2.30
2022-08-31T16:06:43.303Z,2.38
2022-08-31T16:09:10.426Z,2.38
2022-08-31T16:11:40.368Z,2.40
2022-08-31T16:14:11.006Z,2.92
2022-08-31T16:16:40.265Z,2.63
2022-08-31T16:19:08.284Z,2.88
2022-08-31T16:21:37.766Z,10.55
2022-08-31T16:24:08.149Z,2.50
2022-08-31T16:26:37.183Z,2.95
2022-08-31T16:29:06.554Z,2.10
2022-08-31T16:31:33.615Z,3.10
2022-08-31T16:34:00.482Z,2.40
2022-08-31T16:36:28.167Z,2.63
2022-08-31T16:38:56.675Z,2.92
2022-08-31T16:41:26.326Z,2.00
2022-08-31T16:44:18.447Z,2.78
2022-08-31T16:46:45.242Z,3.65
2022-08-31T16:49:30.813Z,2.53
2022-08-31T16:51:58.327Z,2.92
2022-08-31T16:54:27.649Z,3.00
2022-08-31T16:56:57.722Z,2.50
2022-08-31T16:59:28.386Z,3.53
2022-08-31T17:01:55.430Z,2.65
2022-08-31T17:04:48.123Z,2.75
2022-08-31T17:07:11.993Z,2.80
2022-08-31T17:09:39.179Z,2.97
2022-08-31T17:12:08.223Z,2.10
2022-08-31T17:14:38.165Z,3.22
2022-08-31T17:17:08.079Z,2.47
2022-08-31T17:19:35.633Z,2.83
2022-08-31T17:22:04.983Z,2.67
2022-08-31T17:24:38.779Z,3.35
2022-08-31T17:27:09.477Z,2.35
2022-08-31T17:29:43.617Z,2.70
2022-08-31T17:32:11.726Z,2.40
2022-08-31T17:34:38.746Z,2.17
2022-08-31T17:37:08.301Z,3.03
2022-08-31T17:39:35.213Z,3.20
2022-08-31T17:42:02.137Z,2.25
2022-08-31T17:44:30.798Z,2.55
2022-08-31T17:46:59.041Z,2.60
2022-08-31T17:49:26.865Z,2.65
2022-08-31T17:51:55.191Z,2.78
2022-08-31T17:54:24.630Z,2.83
2022-08-31T17:56:53.834Z,2.17
2022-08-31T17:59:25.607Z,2.42
2022-08-31T18:01:54.737Z,2.20
2022-08-31T18:04:22.543Z,2.75
2022-08-31T18:06:51.732Z,2.75
2022-08-31T18:09:19.975Z,2.30
2022-08-31T18:11:47.836Z,2.33
2022-08-31T18:14:16.311Z,2.20
2022-08-31T18:16:44.007Z,2.30
2022-08-31T18:19:11.271Z,2.95
2022-08-31T18:21:38.411Z,2.42
2022-08-31T18:24:09.310Z,2.65
2022-08-31T18:26:43.240Z,2.85
2022-08-31T18:29:14.838Z,2.22
2022-08-31T18:31:46.758Z,2.20
2022-08-31T18:34:17.491Z,2.20
2022-08-31T18:36:45.565Z,2.17
2022-08-31T18:39:13.883Z,2.15
2022-08-31T18:41:59.454Z,2.47
2022-08-31T18:44:44.932Z,2.40
2022-08-31T18:47:12.206Z,2.45
2022-08-31T18:49:40.278Z,2.28
2022-08-31T18:52:19.562Z,2.10
2022-08-31T18:54:47.326Z,2.10
2022-08-31T18:57:14.136Z,2.13
2022-08-31T18:59:41.037Z,2.05
2022-08-31T19:02:08.129Z,2.45
2022-08-31T19:04:35.774Z,1.70
2022-08-31T19:07:03.462Z,1.80
2022-08-31T19:09:30.274Z,2.25
2022-08-31T19:12:02.318Z,1.65
2022-08-31T19:14:32.240Z,2.08
2022-08-31T19:17:03.935Z,1.83
2022-08-31T19:19:32.028Z,1.40
2022-08-31T19:21:58.903Z,1.40
2022-08-31T19:24:25.718Z,1.70
2022-08-31T19:26:56.838Z,1.35
2022-08-31T19:29:26.717Z,1.70
2022-08-31T19:31:54.798Z,1.50
2022-08-31T19:34:23.793Z,1.65
2022-08-31T19:36:54.530Z,1.77
2022-08-31T19:39:24.827Z,1.80
2022-08-31T19:41:59.167Z,2.10
2022-08-31T19:44:27.635Z,1.48
2022-08-31T19:46:55.297Z,1.45
2022-08-31T19:49:22.806Z,0.98
2022-08-31T19:51:58.238Z,1.50
2022-08-31T19:54:26.182Z,1.48
2022-08-31T19:56:53.660Z,1.40
2022-08-31T19:59:21.138Z,1.25
2022-08-31T20:01:52.269Z,1.42
2022-08-31T20:04:20.183Z,1.50
2022-08-31T20:06:52.343Z,1.50
2022-08-31T20:09:20.218Z,1.75
2022-08-31T20:11:50.141Z,1.45
2022-08-31T20:14:17.698Z,1.30
2022-08-31T20:16:45.151Z,1.33
2022-08-31T20:19:16.143Z,1.48
2022-08-31T20:21:44.599Z,1.63
2022-08-31T20:24:13.384Z,1.67
2022-08-31T20:26:44.783Z,1.67
2022-08-31T20:29:16.125Z,1.83
2022-08-31T20:31:45.084Z,1.40
2022-08-31T20:34:18.535Z,1.40
2022-08-31T20:36:47.800Z,1.50
2022-08-31T20:39:16.554Z,1.40
2022-08-31T20:41:46.293Z,1.45
2022-08-31T20:44:18.718Z,1.40
2022-08-31T20:47:05.098Z,1.42
2022-08-31T20:49:33.915Z,1.40
2022-08-31T20:52:01.963Z,1.73
2022-08-31T20:54:32.668Z,1.40
2022-08-31T20:57:00.890Z,1.52
2022-08-31T20:59:27.792Z,1.23
2022-08-31T21:01:58.658Z,1.45
2022-08-31T21:04:29.742Z,1.83
2022-08-31T21:06:58.965Z,1.40
2022-08-31T21:09:26.177Z,1.30
2022-08-31T21:11:55.393Z,1.20
2022-08-31T21:14:22.439Z,1.27
2022-08-31T21:16:50.318Z,1.60
2022-08-31T21:19:18.302Z,1.60
2022-08-31T21:21:46.033Z,1.50
2022-08-31T21:24:14.244Z,1.65
2022-08-31T21:26:41.330Z,1.35
2022-08-31T21:29:12.680Z,1.48
2022-08-31T21:31:52.055Z,1.52
2022-08-31T21:34:25.411Z,1.60
2022-08-31T21:36:52.313Z,1.42
2022-08-31T21:39:21.418Z,1.60
2022-08-31T21:41:50.475Z,1.92
2022-08-31T21:44:18.317Z,1.33
2022-08-31T21:46:50.296Z,1.70
2022-08-31T21:49:18.047Z,1.77
2022-08-31T21:51:48.703Z,1.58
2022-08-31T21:54:16.126Z,1.38
2022-08-31T21:56:47.937Z,1.52
2022-08-31T21:59:15.522Z,1.50
2022-08-31T22:01:42.710Z,1.63
2022-08-31T22:04:10.043Z,1.60
2022-08-31T22:06:37.119Z,1.42
2022-08-31T22:09:14.963Z,1.30
2022-08-31T22:11:45.652Z,1.52
2022-08-31T22:14:16.128Z,1.52
2022-08-31T22:16:46.501Z,1.70
2022-08-31T22:19:14.825Z,1.83
2022-08-31T22:21:44.222Z,1.77
2022-08-31T22:24:26.687Z,1.38
2022-08-31T22:26:55.290Z,1.40
2022-08-31T22:29:23.959Z,1.67
2022-08-31T22:31:56.369Z,1.95
2022-08-31T22:34:24.094Z,1.50
2022-08-31T22:36:52.153Z,1.58
2022-08-31T22:39:23.938Z,1.52
2022-08-31T22:41:51.868Z,2.30
2022-08-31T22:44:20.402Z,1.80
2022-08-31T22:46:47.586Z,1.48
2022-08-31T22:49:14.706Z,1.63
2022-08-31T22:51:42.123Z,2.00
2022-08-31T22:54:09.554Z,1.40
2022-08-31T22:56:37.725Z,1.67
2022-08-31T22:59:10.606Z,1.52
2022-08-31T23:01:42.795Z,1.60
2022-08-31T23:04:14.778Z,1.48
2022-08-31T23:06:41.630Z,1.30
2022-08-31T23:09:09.966Z,1.20
2022-08-31T23:11:37.511Z,1.58
2022-08-31T23:14:07.575Z,1.27
2022-08-31T23:16:45.590Z,1.30
2022-08-31T23:19:14.666Z,1.40
2022-08-31T23:21:47.711Z,1.52
2022-08-31T23:24:28.806Z,1.20
2022-08-31T23:27:03.044Z,1.70
2022-08-31T23:29:31.273Z,1.65
2022-08-31T23:31:59.556Z,1.30
2022-08-31T23:34:27.175Z,1.30
2022-08-31T23:36:55.595Z,1.58
2022-08-31T23:39:24.987Z,1.15
2022-08-31T23:41:53.274Z,1.30
2022-08-31T23:44:20.498Z,1.40
2022-08-31T23:46:47.709Z,1.73
2022-08-31T23:49:15.586Z,1.50
2022-08-31T23:51:42.644Z,1.85
2022-08-31T23:54:12.562Z,1.40
2022-08-31T23:56:40.871Z,1.60
2022-08-31T23:59:11.054Z,1.20
